createdAt,value
2023-09-08T00:00:16.476Z,3.20
2023-09-08T00:02:46.127Z,3.05
2023-09-08T00:05:17.396Z,3.08
2023-09-08T00:07:46.953Z,2.90
2023-09-08T00:10:16.683Z,2.85
2023-09-08T00:12:46.489Z,3.05
2023-09-08T00:15:16.270Z,2.78
2023-09-08T00:17:48.747Z,3.25
2023-09-08T00:20:20.220Z,3.25
2023-09-08T00:22:50.022Z,2.35
2023-09-08T00:25:19.824Z,2.78
2023-09-08T00:27:49.463Z,3.47
2023-09-08T00:30:19.266Z,3.35
2023-09-08T00:32:49.088Z,2.85
2023-09-08T00:35:20.560Z,2.83
2023-09-08T00:37:50.208Z,3.38
2023-09-08T00:40:20.544Z,2.75
2023-09-08T00:42:50.446Z,2.33
2023-09-08T00:47:26.549Z,2.70
2023-09-08T00:49:56.180Z,3.13
2023-09-08T00:52:41.000Z,2.78
2023-09-08T00:55:11.604Z,3.58
2023-09-08T00:57:41.461Z,3.45
2023-09-08T01:00:13.308Z,3.05
2023-09-08T01:02:46.674Z,2.97
2023-09-08T01:05:17.666Z,3.22
2023-09-08T01:07:48.331Z,2.92
2023-09-08T01:10:18.238Z,3.03
2023-09-08T01:12:47.939Z,2.45
2023-09-08T01:15:17.475Z,2.35
2023-09-08T01:17:48.743Z,2.80
2023-09-08T01:20:23.836Z,2.92
2023-09-08T01:23:19.936Z,2.60
2023-09-08T01:25:57.539Z,2.30
2023-09-08T01:28:28.389Z,2.40
2023-09-08T01:31:00.167Z,2.38
2023-09-08T01:33:30.956Z,3.17
2023-09-08T01:36:00.782Z,2.17
2023-09-08T01:38:30.608Z,2.45
2023-09-08T01:41:03.125Z,2.55
2023-09-08T01:43:32.917Z,2.55
2023-09-08T01:46:02.621Z,2.22
2023-09-08T01:48:32.711Z,2.00
2023-09-08T01:51:02.819Z,2.20
2023-09-08T01:53:32.584Z,1.92
2023-09-08T01:56:03.619Z,1.60
2023-09-08T01:59:24.099Z,2.13
2023-09-08T02:01:53.707Z,1.80
2023-09-08T02:04:24.668Z,1.80
2023-09-08T02:06:54.450Z,1.70
2023-09-08T02:09:24.469Z,1.60
2023-09-08T02:11:55.659Z,1.80
2023-09-08T02:14:25.243Z,1.60
2023-09-08T02:16:55.139Z,1.42
2023-09-08T02:19:25.242Z,1.25
2023-09-08T02:21:54.959Z,1.20
2023-09-08T02:24:24.773Z,1.17
2023-09-08T02:26:57.146Z,1.20
2023-09-08T02:31:56.134Z,1.20
2023-09-08T02:34:25.889Z,1.13
2023-09-08T02:36:55.560Z,1.13
2023-09-08T02:39:28.233Z,1.15
2023-09-08T02:41:59.358Z,1.05
2023-09-08T02:44:28.930Z,1.05
2023-09-08T02:46:58.822Z,0.98
2023-09-08T02:49:29.776Z,0.88
2023-09-08T02:51:59.441Z,1.02
2023-09-08T02:54:29.155Z,0.82
2023-09-08T02:57:00.353Z,1.20
2023-09-08T02:59:29.965Z,0.93
2023-09-08T03:02:00.442Z,1.73
2023-09-08T03:04:30.237Z,1.15
2023-09-08T03:06:59.962Z,1.48
2023-09-08T03:09:29.703Z,1.20
2023-09-08T03:12:00.877Z,1.23
2023-09-08T03:14:30.882Z,1.10
2023-09-08T03:17:00.682Z,1.20
2023-09-08T03:19:30.850Z,1.40
2023-09-08T03:22:00.554Z,1.27
2023-09-08T03:24:30.314Z,1.23
2023-09-08T03:27:01.667Z,1.50
2023-09-08T03:29:31.199Z,1.85
2023-09-08T03:32:01.007Z,1.10
2023-09-08T03:34:30.874Z,1.13
2023-09-08T03:37:00.819Z,1.27
2023-09-08T03:39:30.541Z,1.70
2023-09-08T03:42:01.826Z,1.13
2023-09-08T03:44:31.640Z,0.77
2023-09-08T03:48:26.096Z,1.02
2023-09-08T03:50:55.804Z,1.58
2023-09-08T03:53:25.443Z,1.27
2023-09-08T03:55:55.356Z,1.55
2023-09-08T03:58:25.181Z,1.67
2023-09-08T04:00:54.866Z,1.17
2023-09-08T04:03:26.043Z,1.30
2023-09-08T04:05:55.771Z,1.23
2023-09-08T04:08:25.944Z,1.30
2023-09-08T04:10:55.665Z,1.20
2023-09-08T04:13:25.414Z,1.08
2023-09-08T04:15:55.051Z,1.10
2023-09-08T04:18:26.391Z,1.50
2023-09-08T04:20:56.261Z,1.50
2023-09-08T04:23:26.302Z,1.17
2023-09-08T04:25:56.097Z,1.50
2023-09-08T04:28:25.787Z,1.17
2023-09-08T04:30:55.403Z,1.20
2023-09-08T04:33:27.317Z,1.10
2023-09-08T04:35:57.034Z,1.80
2023-09-08T04:38:26.826Z,1.20
2023-09-08T04:40:56.562Z,1.15
2023-09-08T04:43:26.394Z,1.00
2023-09-08T04:45:56.000Z,1.38
2023-09-08T04:48:29.197Z,1.45
2023-09-08T04:51:00.604Z,1.13
2023-09-08T04:53:30.317Z,1.20
2023-09-08T04:55:59.928Z,1.17
2023-09-08T04:58:29.688Z,1.10
2023-09-08T05:00:59.211Z,1.20
2023-09-08T05:03:32.167Z,1.33
2023-09-08T05:06:02.793Z,1.40
2023-09-08T05:08:32.426Z,1.00
2023-09-08T05:11:02.183Z,1.02
2023-09-08T05:13:32.199Z,1.52
2023-09-08T05:16:12.801Z,1.48
2023-09-08T05:18:44.473Z,1.20
2023-09-08T05:21:15.618Z,1.10
2023-09-08T05:23:45.236Z,1.35
2023-09-08T05:26:14.922Z,1.35
2023-09-08T05:28:45.068Z,1.25
2023-09-08T05:31:15.207Z,1.85
2023-09-08T05:33:47.732Z,1.15
2023-09-08T05:36:17.437Z,1.45
2023-09-08T05:38:47.004Z,1.60
2023-09-08T05:41:16.669Z,1.70
2023-09-08T05:43:46.899Z,1.67
2023-09-08T05:46:19.748Z,1.80
2023-09-08T05:48:51.038Z,1.55
2023-09-08T05:51:21.034Z,1.50
2023-09-08T05:53:50.751Z,1.75
2023-09-08T05:56:22.477Z,1.38
2023-09-08T05:58:52.246Z,1.20
2023-09-08T06:01:22.978Z,1.60
2023-09-08T06:03:56.007Z,1.42
2023-09-08T06:06:26.665Z,1.83
2023-09-08T06:08:56.317Z,1.52
2023-09-08T06:11:26.087Z,1.73
2023-09-08T06:14:00.405Z,1.40
2023-09-08T06:16:30.223Z,1.90
2023-09-08T06:19:01.822Z,1.63
2023-09-08T06:21:31.281Z,1.52
2023-09-08T06:24:00.866Z,1.75
2023-09-08T06:26:30.406Z,2.00
2023-09-08T06:28:59.965Z,1.45
2023-09-08T06:31:29.982Z,1.90
2023-09-08T06:34:01.113Z,1.80
2023-09-08T06:36:30.974Z,1.70
2023-09-08T06:39:00.743Z,1.73
2023-09-08T06:41:30.354Z,2.10
2023-09-08T06:43:59.948Z,1.63
2023-09-08T06:48:26.126Z,1.77
2023-09-08T06:50:57.839Z,1.60
2023-09-08T06:53:27.652Z,1.52
2023-09-08T06:55:57.424Z,1.40
2023-09-08T06:58:27.082Z,1.60
2023-09-08T07:00:57.123Z,1.60
2023-09-08T07:03:29.099Z,1.73
2023-09-08T07:05:58.891Z,1.52
2023-09-08T07:08:28.702Z,1.80
2023-09-08T07:10:58.984Z,1.38
2023-09-08T07:13:28.991Z,1.40
2023-09-08T07:15:58.823Z,1.42
2023-09-08T07:18:30.152Z,1.63
2023-09-08T07:20:59.674Z,1.73
2023-09-08T07:23:29.680Z,1.70
2023-09-08T07:25:59.430Z,1.58
2023-09-08T07:28:29.041Z,2.33
2023-09-08T07:31:05.102Z,1.92
2023-09-08T07:33:36.304Z,1.80
2023-09-08T07:36:08.658Z,1.75
2023-09-08T07:38:38.637Z,1.90
2023-09-08T07:41:08.394Z,2.45
2023-09-08T07:43:42.128Z,2.38
2023-09-08T07:46:12.137Z,2.35
2023-09-08T07:48:43.344Z,2.60
2023-09-08T07:51:13.041Z,2.73
2023-09-08T07:53:43.123Z,2.40
2023-09-08T07:56:12.699Z,2.90
2023-09-08T07:58:42.351Z,2.90
2023-09-08T08:01:12.610Z,3.08
2023-09-08T08:03:43.711Z,3.47
2023-09-08T08:06:13.471Z,3.25
2023-09-08T08:08:43.159Z,4.05
2023-09-08T08:11:15.205Z,3.63
2023-09-08T08:16:14.917Z,4.03
2023-09-08T08:18:46.125Z,3.70
2023-09-08T08:21:15.930Z,3.40
2023-09-08T08:23:45.691Z,2.90
2023-09-08T08:26:15.349Z,3.13
2023-09-08T08:28:45.074Z,3.15
2023-09-08T08:31:14.893Z,3.50
2023-09-08T08:33:46.168Z,3.28
2023-09-08T08:36:16.687Z,3.37
2023-09-08T08:38:46.391Z,2.97
2023-09-08T08:41:16.097Z,3.42
2023-09-08T08:43:47.170Z,3.25
2023-09-08T08:46:17.472Z,3.00
2023-09-08T08:48:50.442Z,2.92
2023-09-08T08:51:22.321Z,2.85
2023-09-08T08:53:52.021Z,2.55
2023-09-08T08:56:21.738Z,2.55
2023-09-08T08:58:52.410Z,2.67
2023-09-08T09:01:22.980Z,2.65
2023-09-08T09:03:55.416Z,2.40
2023-09-08T09:06:25.277Z,3.03
2023-09-08T09:08:54.940Z,2.85
2023-09-08T09:11:24.844Z,2.75
2023-09-08T09:13:54.433Z,2.50
2023-09-08T09:16:24.150Z,2.83
2023-09-08T09:19:00.523Z,2.83
2023-09-08T09:21:47.528Z,2.63
2023-09-08T09:24:22.312Z,3.08
2023-09-08T09:26:55.951Z,2.35
2023-09-08T09:29:25.696Z,2.42
2023-09-08T09:31:56.750Z,2.33
2023-09-08T09:34:27.922Z,3.15
2023-09-08T09:36:58.314Z,2.63
2023-09-08T09:39:29.324Z,2.63
2023-09-08T09:42:00.774Z,2.65
2023-09-08T09:44:30.393Z,2.70
2023-09-08T09:48:27.142Z,2.38
2023-09-08T09:50:56.904Z,2.60
2023-09-08T09:53:27.135Z,2.50
2023-09-08T09:55:58.239Z,2.67
2023-09-08T09:58:30.007Z,3.03
2023-09-08T10:01:02.275Z,2.88
2023-09-08T10:03:35.068Z,2.50
2023-09-08T10:06:07.163Z,2.47
2023-09-08T10:11:10.667Z,2.88
2023-09-08T10:13:46.780Z,2.65
2023-09-08T10:16:21.825Z,2.80
2023-09-08T10:18:55.820Z,2.58
2023-09-08T10:21:29.787Z,3.25
2023-09-08T10:24:18.654Z,2.72
2023-09-08T10:26:54.400Z,2.75
2023-09-08T10:29:26.192Z,3.38
2023-09-08T10:31:56.623Z,2.33
2023-09-08T10:34:29.021Z,2.63
2023-09-08T10:36:58.820Z,2.15
2023-09-08T10:39:33.640Z,2.53
2023-09-08T10:42:27.493Z,2.78
2023-09-08T10:45:05.644Z,2.67
2023-09-08T10:47:56.714Z,2.10
2023-09-08T10:50:36.274Z,2.15
2023-09-08T10:53:16.986Z,3.40
2023-09-08T10:56:10.612Z,2.33
2023-09-08T10:58:44.661Z,2.38
2023-09-08T11:01:18.516Z,2.35
2023-09-08T11:03:51.897Z,2.60
2023-09-08T11:06:25.026Z,2.22
2023-09-08T11:08:57.668Z,2.85
2023-09-08T11:11:27.767Z,2.67
2023-09-08T11:13:59.082Z,2.28
2023-09-08T11:16:33.111Z,2.58
2023-09-08T11:19:06.103Z,2.60
2023-09-08T11:21:38.501Z,2.40
2023-09-08T11:24:10.952Z,2.40
2023-09-08T11:26:41.546Z,2.65
2023-09-08T11:29:11.136Z,2.40
2023-09-08T11:31:40.893Z,2.67
2023-09-08T11:34:10.573Z,3.33
2023-09-08T11:36:41.646Z,2.65
2023-09-08T11:39:13.091Z,2.70
2023-09-08T11:41:43.305Z,2.83
2023-09-08T11:44:17.532Z,3.00
2023-09-08T11:46:47.477Z,2.33
2023-09-08T11:49:17.135Z,2.67
2023-09-08T11:51:49.394Z,2.72
2023-09-08T11:54:19.467Z,2.50
2023-09-08T11:56:49.193Z,2.63
2023-09-08T11:59:19.682Z,2.22
2023-09-08T12:01:49.472Z,2.50
2023-09-08T12:04:22.496Z,2.42
2023-09-08T12:06:57.022Z,2.50
2023-09-08T12:09:27.561Z,2.20
2023-09-08T12:11:57.182Z,2.50
2023-09-08T12:14:28.531Z,3.05
2023-09-08T12:17:09.804Z,2.25
2023-09-08T12:19:39.775Z,2.47
2023-09-08T12:22:13.197Z,2.25
2023-09-08T12:25:03.493Z,2.92
2023-09-08T12:27:33.046Z,2.70
2023-09-08T12:30:05.603Z,2.30
2023-09-08T12:32:36.168Z,2.53
2023-09-08T12:35:07.909Z,2.63
2023-09-08T12:37:39.308Z,2.10
2023-09-08T12:40:11.433Z,2.45
2023-09-08T12:42:44.614Z,2.05
2023-09-08T12:48:25.672Z,2.25
2023-09-08T12:50:55.325Z,1.87
2023-09-08T12:53:25.747Z,2.22
2023-09-08T12:55:55.421Z,2.20
2023-09-08T12:58:25.006Z,2.42
2023-09-08T13:00:54.703Z,2.58
2023-09-08T13:03:27.085Z,2.25
2023-09-08T13:05:56.750Z,2.00
2023-09-08T13:08:26.542Z,1.92
2023-09-08T13:10:56.328Z,1.80
2023-09-08T13:13:25.964Z,1.60
2023-09-08T13:15:55.723Z,2.13
2023-09-08T13:18:26.938Z,1.88
2023-09-08T13:20:56.598Z,1.93
2023-09-08T13:23:26.515Z,1.65
2023-09-08T13:25:56.276Z,1.92
2023-09-08T13:28:25.872Z,1.80
2023-09-08T13:30:55.872Z,1.70
2023-09-08T13:33:27.170Z,1.45
2023-09-08T13:35:57.516Z,2.00
2023-09-08T13:38:27.258Z,1.70
2023-09-08T13:40:57.415Z,1.80
2023-09-08T13:43:27.489Z,1.80
2023-09-08T13:45:57.516Z,2.20
2023-09-08T13:48:29.520Z,2.10
2023-09-08T13:51:06.899Z,1.80
2023-09-08T13:53:43.369Z,2.13
2023-09-08T13:56:20.022Z,2.10
2023-09-08T13:58:52.011Z,1.85
2023-09-08T14:01:33.745Z,2.00
2023-09-08T14:06:41.721Z,1.95
2023-09-08T14:09:42.925Z,1.88
2023-09-08T14:14:42.223Z,1.98
2023-09-08T14:17:12.104Z,2.00
2023-09-08T14:19:43.356Z,2.08
2023-09-08T14:22:13.043Z,2.50
2023-09-08T14:24:42.604Z,2.05
2023-09-08T14:27:12.376Z,2.33
2023-09-08T14:29:42.180Z,2.47
2023-09-08T14:32:11.751Z,2.33
2023-09-08T14:34:42.812Z,2.03
2023-09-08T14:37:12.339Z,2.13
2023-09-08T14:39:41.834Z,1.90
2023-09-08T14:42:12.788Z,2.25
2023-09-08T14:44:42.501Z,2.30
2023-09-08T14:47:12.368Z,2.40
2023-09-08T14:49:44.560Z,2.15
2023-09-08T14:52:14.267Z,1.95
2023-09-08T14:54:44.602Z,2.75
2023-09-08T14:57:14.428Z,1.98
2023-09-08T14:59:44.338Z,2.10
2023-09-08T15:02:14.512Z,2.30
2023-09-08T15:04:45.699Z,2.10
2023-09-08T15:07:15.571Z,2.37
2023-09-08T15:09:45.309Z,2.45
2023-09-08T15:12:15.046Z,2.30
2023-09-08T15:14:44.638Z,2.40
2023-09-08T15:17:15.100Z,2.20
2023-09-08T15:19:46.185Z,2.28
2023-09-08T15:22:15.978Z,1.65
2023-09-08T15:24:45.658Z,2.00
2023-09-08T15:27:15.372Z,2.42
2023-09-08T15:29:45.069Z,1.90
2023-09-08T15:32:14.704Z,2.30
2023-09-08T15:34:48.407Z,2.10
2023-09-08T15:37:18.073Z,2.50
2023-09-08T15:39:49.822Z,1.83
2023-09-08T15:42:19.608Z,1.67
2023-09-08T15:44:49.298Z,2.05
2023-09-08T15:48:25.550Z,2.30
2023-09-08T15:50:55.192Z,2.20
2023-09-08T15:53:25.094Z,2.10
2023-09-08T15:55:54.775Z,1.80
2023-09-08T15:58:24.544Z,1.77
2023-09-08T16:00:54.315Z,2.22
2023-09-08T16:03:25.681Z,2.47
2023-09-08T16:05:55.428Z,2.00
2023-09-08T16:08:25.442Z,2.20
2023-09-08T16:10:55.270Z,2.67
2023-09-08T16:13:25.078Z,2.13
2023-09-08T16:15:54.856Z,2.33
2023-09-08T16:18:26.230Z,2.30
2023-09-08T16:20:55.999Z,1.90
2023-09-08T16:23:25.844Z,2.83
2023-09-08T16:25:55.448Z,2.53
2023-09-08T16:28:25.140Z,2.22
2023-09-08T16:30:54.900Z,2.50
2023-09-08T16:33:25.996Z,2.25
2023-09-08T16:35:57.700Z,2.33
2023-09-08T16:38:27.279Z,2.38
2023-09-08T16:40:59.213Z,2.05
2023-09-08T16:43:29.228Z,2.40
2023-09-08T16:45:59.007Z,2.42
2023-09-08T16:48:30.273Z,2.67
2023-09-08T16:50:59.974Z,1.90
2023-09-08T16:53:29.580Z,2.47
2023-09-08T16:55:59.338Z,2.08
2023-09-08T16:58:28.909Z,2.17
2023-09-08T17:00:58.732Z,2.65
2023-09-08T17:03:29.954Z,2.60
2023-09-08T17:05:59.839Z,2.57
2023-09-08T17:08:30.130Z,2.20
2023-09-08T17:11:04.918Z,2.40
2023-09-08T17:13:36.315Z,2.35
2023-09-08T17:16:06.531Z,2.78
2023-09-08T17:18:37.741Z,2.38
2023-09-08T17:21:07.593Z,2.10
2023-09-08T17:23:37.550Z,2.03
2023-09-08T17:26:08.869Z,2.25
2023-09-08T17:28:38.596Z,2.15
2023-09-08T17:31:08.337Z,2.10
2023-09-08T17:33:39.636Z,1.73
2023-09-08T17:36:09.613Z,2.30
2023-09-08T17:38:39.399Z,2.05
2023-09-08T17:41:09.207Z,1.90
2023-09-08T17:43:39.134Z,2.10
2023-09-08T17:46:09.434Z,1.77
2023-09-08T17:48:40.582Z,2.13
2023-09-08T17:51:10.417Z,1.95
2023-09-08T17:53:40.121Z,2.35
2023-09-08T17:56:09.820Z,1.52
2023-09-08T17:58:39.491Z,2.05
2023-09-08T18:01:09.225Z,2.10
2023-09-08T18:03:41.209Z,1.42
2023-09-08T18:08:41.166Z,1.70
2023-09-08T18:11:11.048Z,2.17
2023-09-08T18:13:42.075Z,1.70
2023-09-08T18:16:11.950Z,2.10
2023-09-08T18:18:44.037Z,1.83
2023-09-08T18:21:13.784Z,2.05
2023-09-08T18:23:44.944Z,1.90
2023-09-08T18:26:17.121Z,1.92
2023-09-08T18:28:47.007Z,2.13
2023-09-08T18:31:16.948Z,1.75
2023-09-08T18:33:48.289Z,1.60
2023-09-08T18:36:18.017Z,1.63
2023-09-08T18:38:47.579Z,1.98
2023-09-08T18:41:18.622Z,1.90
2023-09-08T18:43:48.419Z,1.88
2023-09-08T18:48:25.420Z,1.75
2023-09-08T18:50:55.537Z,2.15
2023-09-08T18:53:25.411Z,1.85
2023-09-08T18:55:55.118Z,2.28
2023-09-08T18:58:25.890Z,2.05
2023-09-08T19:00:57.160Z,1.90
2023-09-08T19:03:28.390Z,1.83
2023-09-08T19:05:58.152Z,2.53
2023-09-08T19:08:29.062Z,1.98
2023-09-08T19:11:00.614Z,1.88
2023-09-08T19:13:30.361Z,2.08
2023-09-08T19:15:59.943Z,2.03
2023-09-08T19:18:30.951Z,1.80
2023-09-08T19:21:00.758Z,1.88
2023-09-08T19:23:30.328Z,2.42
2023-09-08T19:25:59.941Z,2.10
2023-09-08T19:28:29.721Z,2.22
2023-09-08T19:30:59.973Z,1.90
2023-09-08T19:33:31.175Z,2.08
2023-09-08T19:36:01.066Z,2.08
2023-09-08T19:38:32.249Z,1.77
2023-09-08T19:41:05.781Z,2.10
2023-09-08T19:43:35.882Z,2.30
2023-09-08T19:46:06.780Z,2.25
2023-09-08T19:48:39.134Z,1.70
2023-09-08T19:51:08.820Z,1.80
2023-09-08T19:53:38.701Z,2.28
2023-09-08T19:56:08.728Z,1.85
2023-09-08T19:58:38.574Z,1.88
2023-09-08T20:01:09.033Z,2.00
2023-09-08T20:03:40.885Z,1.98
2023-09-08T20:08:40.185Z,2.22
2023-09-08T20:11:09.953Z,2.13
2023-09-08T20:13:39.847Z,2.28
2023-09-08T20:16:10.790Z,1.83
2023-09-08T20:18:42.582Z,2.08
2023-09-08T20:21:12.335Z,1.85
2023-09-08T20:23:42.250Z,1.67
2023-09-08T20:26:11.995Z,2.20
2023-09-08T20:28:41.614Z,2.00
2023-09-08T20:31:16.743Z,2.28
2023-09-08T20:33:49.882Z,1.88
2023-09-08T20:38:49.336Z,2.28
2023-09-08T20:41:19.019Z,2.10
2023-09-08T20:43:48.984Z,1.95
2023-09-08T20:46:19.058Z,2.20
2023-09-08T20:48:50.318Z,1.80
2023-09-08T20:51:22.233Z,1.67
2023-09-08T20:53:52.153Z,2.50
2023-09-08T20:56:21.679Z,2.08
2023-09-08T20:58:51.245Z,2.10
2023-09-08T21:01:20.939Z,2.30
2023-09-08T21:03:52.015Z,1.98
2023-09-08T21:06:22.842Z,1.85
2023-09-08T21:08:53.575Z,2.00
2023-09-08T21:11:23.390Z,2.15
2023-09-08T21:13:53.073Z,2.00
2023-09-08T21:16:22.759Z,1.90
2023-09-08T21:18:53.913Z,1.70
2023-09-08T21:21:23.495Z,2.35
2023-09-08T21:23:53.076Z,2.20
2023-09-08T21:26:22.670Z,2.80
2023-09-08T21:28:52.542Z,1.70
2023-09-08T21:31:22.209Z,1.70
2023-09-08T21:33:54.248Z,2.22
2023-09-08T21:36:23.993Z,1.85
2023-09-08T21:38:56.272Z,1.90
2023-09-08T21:41:26.791Z,2.20
2023-09-08T21:43:56.542Z,1.95
2023-09-08T21:48:25.155Z,2.20
2023-09-08T21:50:54.923Z,1.50
2023-09-08T21:53:24.582Z,2.15
2023-09-08T21:55:54.130Z,1.83
2023-09-08T21:58:23.833Z,1.77
2023-09-08T22:00:53.382Z,2.03
2023-09-08T22:03:24.692Z,1.95
2023-09-08T22:05:54.461Z,1.85
2023-09-08T22:08:24.369Z,1.90
2023-09-08T22:10:54.971Z,1.85
2023-09-08T22:13:26.073Z,1.85
2023-09-08T22:15:55.751Z,1.65
2023-09-08T22:18:27.071Z,1.60
2023-09-08T22:20:57.205Z,2.05
2023-09-08T22:23:27.863Z,1.80
2023-09-08T22:25:57.723Z,2.20
2023-09-08T22:28:27.367Z,2.40
2023-09-08T22:30:57.443Z,2.10
2023-09-08T22:33:30.781Z,1.48
2023-09-08T22:36:01.112Z,1.63
2023-09-08T22:38:30.694Z,1.50
2023-09-08T22:41:00.322Z,1.70
2023-09-08T22:43:30.273Z,2.03
2023-09-08T22:45:59.863Z,1.58
2023-09-08T22:48:31.193Z,1.90
2023-09-08T22:51:02.314Z,2.28
2023-09-08T22:53:34.109Z,2.28
2023-09-08T22:56:04.303Z,1.50
2023-09-08T22:58:42.971Z,1.90
2023-09-08T23:01:12.753Z,2.05
2023-09-08T23:03:43.979Z,2.25
2023-09-08T23:06:14.997Z,1.80
2023-09-08T23:08:44.683Z,1.42
2023-09-08T23:11:14.395Z,1.80
2023-09-08T23:13:44.284Z,1.70
2023-09-08T23:16:14.753Z,2.30
2023-09-08T23:18:45.846Z,1.90
2023-09-08T23:21:15.626Z,1.70
2023-09-08T23:23:45.286Z,2.05
2023-09-08T23:26:14.888Z,1.60
2023-09-08T23:28:44.621Z,1.50
2023-09-08T23:31:14.339Z,1.65
2023-09-08T23:33:47.617Z,1.77
2023-09-08T23:36:17.666Z,1.70
2023-09-08T23:38:47.806Z,1.85
2023-09-08T23:41:17.459Z,2.15
2023-09-08T23:43:47.079Z,1.25
2023-09-08T23:46:17.497Z,2.10
2023-09-08T23:48:48.604Z,2.15
2023-09-08T23:51:18.333Z,1.40
2023-09-08T23:53:48.025Z,1.30
2023-09-08T23:56:17.829Z,1.63
2023-09-08T23:58:47.522Z,2.08
